sensor_id;sensor_type;location;lat;lon;timestamp;pressure;altitude;pressure_sealevel;temperature;humidity
84255;BME280;74400;44.692;18.998;2024-03-29T00:00:53;99177.53;;;16.65;45.41
84255;BME280;74400;44.692;18.998;2024-03-29T00:03:19;99167.13;;;16.65;45.41
84255;BME280;74400;44.692;18.998;2024-03-29T00:05:45;99174.47;;;16.69;44.98
84255;BME280;74400;44.692;18.998;2024-03-29T00:08:10;99175.09;;;16.63;45.42
84255;BME280;74400;44.692;18.998;2024-03-29T00:10:36;99176.88;;;16.63;45.40
84255;BME280;74400;44.692;18.998;2024-03-29T00:13:02;99189.22;;;16.69;45.38
84255;BME280;74400;44.692;18.998;2024-03-29T00:15:27;99191.47;;;16.64;45.40
84255;BME280;74400;44.692;18.998;2024-03-29T00:17:53;99189.50;;;16.58;45.50
84255;BME280;74400;44.692;18.998;2024-03-29T00:20:19;99194.50;;;16.51;45.78
84255;BME280;74400;44.692;18.998;2024-03-29T00:22:47;99200.47;;;16.43;46.59
84255;BME280;74400;44.692;18.998;2024-03-29T00:25:12;99201.03;;;16.29;46.64
84255;BME280;74400;44.692;18.998;2024-03-29T00:40:43;99242.00;;;15.91;48.05
84255;BME280;74400;44.692;18.998;2024-03-29T00:43:08;99245.78;;;15.79;48.61
84255;BME280;74400;44.692;18.998;2024-03-29T00:45:34;99248.16;;;15.73;48.34
84255;BME280;74400;44.692;18.998;2024-03-29T00:47:59;99250.22;;;15.69;48.63
84255;BME280;74400;44.692;18.998;2024-03-29T00:50:25;99251.97;;;15.51;49.83
84255;BME280;74400;44.692;18.998;2024-03-29T00:52:51;99248.66;;;15.40;49.59
84255;BME280;74400;44.692;18.998;2024-03-29T00:55:16;99255.94;;;15.45;49.04
84255;BME280;74400;44.692;18.998;2024-03-29T00:57:42;99253.41;;;15.63;48.98
84255;BME280;74400;44.692;18.998;2024-03-29T01:00:08;99251.50;;;15.65;48.62
84255;BME280;74400;44.692;18.998;2024-03-29T01:02:35;99243.63;;;15.75;48.80
84255;BME280;74400;44.692;18.998;2024-03-29T01:05:01;99240.28;;;15.82;48.41
84255;BME280;74400;44.692;18.998;2024-03-29T01:07:27;99241.03;;;15.92;48.60
84255;BME280;74400;44.692;18.998;2024-03-29T01:09:52;99249.22;;;16.06;47.84
84255;BME280;74400;44.692;18.998;2024-03-29T01:12:18;99243.06;;;16.07;47.99
84255;BME280;74400;44.692;18.998;2024-03-29T01:14:46;99248.38;;;16.23;47.86
84255;BME280;74400;44.692;18.998;2024-03-29T01:17:11;99256.34;;;16.30;47.19
84255;BME280;74400;44.692;18.998;2024-03-29T01:19:37;99250.03;;;16.32;47.48
84255;BME280;74400;44.692;18.998;2024-03-29T01:22:03;99260.25;;;16.34;47.55
84255;BME280;74400;44.692;18.998;2024-03-29T01:24:29;99263.66;;;16.34;47.20
84255;BME280;74400;44.692;18.998;2024-03-29T01:26:55;99270.16;;;16.30;47.20
84255;BME280;74400;44.692;18.998;2024-03-29T01:29:21;99263.94;;;16.23;47.80
84255;BME280;74400;44.692;18.998;2024-03-29T01:31:46;99276.59;;;16.26;47.79
84255;BME280;74400;44.692;18.998;2024-03-29T01:34:12;99279.50;;;16.23;48.07
84255;BME280;74400;44.692;18.998;2024-03-29T01:36:38;99288.56;;;16.19;48.42
84255;BME280;74400;44.692;18.998;2024-03-29T01:39:03;99292.13;;;16.18;47.64
84255;BME280;74400;44.692;18.998;2024-03-29T01:41:29;99299.75;;;16.19;47.62
84255;BME280;74400;44.692;18.998;2024-03-29T01:43:55;99307.97;;;16.15;48.13
84255;BME280;74400;44.692;18.998;2024-03-29T01:46:23;99318.06;;;16.18;48.17
84255;BME280;74400;44.692;18.998;2024-03-29T01:48:53;99315.47;;;16.18;48.32
84255;BME280;74400;44.692;18.998;2024-03-29T01:51:23;99320.66;;;16.18;48.32
84255;BME280;74400;44.692;18.998;2024-03-29T01:53:50;99332.72;;;16.09;48.68
84255;BME280;74400;44.692;18.998;2024-03-29T01:56:20;99335.19;;;16.11;48.53
84255;BME280;74400;44.692;18.998;2024-03-29T01:58:51;99343.25;;;16.08;48.74
84255;BME280;74400;44.692;18.998;2024-03-29T02:01:19;99347.13;;;16.04;48.81
84255;BME280;74400;44.692;18.998;2024-03-29T02:03:47;99345.78;;;16.00;48.90
84255;BME280;74400;44.692;18.998;2024-03-29T02:06:13;99344.88;;;16.09;48.58
84255;BME280;74400;44.692;18.998;2024-03-29T02:08:39;99353.31;;;16.29;47.89
84255;BME280;74400;44.692;18.998;2024-03-29T02:11:06;99358.06;;;16.33;48.15
84255;BME280;74400;44.692;18.998;2024-03-29T02:13:31;99363.63;;;16.38;48.07
84255;BME280;74400;44.692;18.998;2024-03-29T02:15:57;99371.41;;;16.38;48.39
84255;BME280;74400;44.692;18.998;2024-03-29T02:18:23;99369.78;;;16.37;48.30
84255;BME280;74400;44.692;18.998;2024-03-29T02:20:49;99375.78;;;16.38;48.24
84255;BME280;74400;44.692;18.998;2024-03-29T02:23:19;99389.84;;;16.35;48.19
84255;BME280;74400;44.692;18.998;2024-03-29T02:28:13;99394.38;;;16.33;48.59
84255;BME280;74400;44.692;18.998;2024-03-29T02:30:39;99399.56;;;16.33;48.64
84255;BME280;74400;44.692;18.998;2024-03-29T02:33:04;99410.28;;;16.30;48.62
84255;BME280;74400;44.692;18.998;2024-03-29T02:35:30;99408.63;;;16.29;48.74
84255;BME280;74400;44.692;18.998;2024-03-29T02:37:56;99412.50;;;16.25;48.53
84255;BME280;74400;44.692;18.998;2024-03-29T02:40:22;99424.81;;;16.23;48.62
84255;BME280;74400;44.692;18.998;2024-03-29T02:42:48;99436.81;;;16.24;49.17
84255;BME280;74400;44.692;18.998;2024-03-29T02:45:15;99430.28;;;16.20;49.36
84255;BME280;74400;44.692;18.998;2024-03-29T02:47:40;99430.00;;;16.23;48.85
84255;BME280;74400;44.692;18.998;2024-03-29T02:50:09;99434.22;;;16.24;48.85
84255;BME280;74400;44.692;18.998;2024-03-29T02:52:35;99423.97;;;16.22;49.25
84255;BME280;74400;44.692;18.998;2024-03-29T02:55:00;99426.13;;;16.27;48.83
84255;BME280;74400;44.692;18.998;2024-03-29T02:57:26;99429.69;;;16.26;49.16
84255;BME280;74400;44.692;18.998;2024-03-29T02:59:52;99419.84;;;16.30;48.84
84255;BME280;74400;44.692;18.998;2024-03-29T03:02:17;99425.31;;;16.27;49.20
84255;BME280;74400;44.692;18.998;2024-03-29T03:04:43;99436.66;;;16.25;49.02
84255;BME280;74400;44.692;18.998;2024-03-29T03:07:09;99447.19;;;16.24;49.08
84255;BME280;74400;44.692;18.998;2024-03-29T03:09:53;99459.56;;;16.12;49.32
84255;BME280;74400;44.692;18.998;2024-03-29T03:12:37;99483.72;;;16.13;50.11
84255;BME280;74400;44.692;18.998;2024-03-29T03:15:03;99493.25;;;15.94;50.53
84255;BME280;74400;44.692;18.998;2024-03-29T03:17:30;99505.47;;;15.75;51.01
84255;BME280;74400;44.692;18.998;2024-03-29T03:19:57;99502.63;;;15.58;51.84
84255;BME280;74400;44.692;18.998;2024-03-29T03:22:22;99513.19;;;15.47;51.50
84255;BME280;74400;44.692;18.998;2024-03-29T03:24:48;99536.28;;;15.40;51.65
84255;BME280;74400;44.692;18.998;2024-03-29T03:27:14;99537.00;;;15.13;53.17
84255;BME280;74400;44.692;18.998;2024-03-29T03:29:39;99552.97;;;14.89;54.33
84255;BME280;74400;44.692;18.998;2024-03-29T03:32:06;99559.69;;;14.32;56.08
84255;BME280;74400;44.692;18.998;2024-03-29T03:34:32;99573.75;;;13.48;58.14
84255;BME280;74400;44.692;18.998;2024-03-29T03:36:58;99602.00;;;13.40;58.47
84255;BME280;74400;44.692;18.998;2024-03-29T03:39:23;99605.31;;;13.19;58.88
84255;BME280;74400;44.692;18.998;2024-03-29T03:41:49;99597.50;;;12.78;59.97
84255;BME280;74400;44.692;18.998;2024-03-29T03:44:16;99588.03;;;12.67;59.96
84255;BME280;74400;44.692;18.998;2024-03-29T03:46:41;99590.88;;;12.64;60.01
84255;BME280;74400;44.692;18.998;2024-03-29T03:49:07;99594.63;;;12.48;60.73
84255;BME280;74400;44.692;18.998;2024-03-29T03:51:33;99589.59;;;12.36;60.06
84255;BME280;74400;44.692;18.998;2024-03-29T03:53:58;99592.44;;;12.22;60.86
84255;BME280;74400;44.692;18.998;2024-03-29T03:56:24;99594.19;;;12.10;61.31
84255;BME280;74400;44.692;18.998;2024-03-29T03:58:50;99607.13;;;11.99;60.93
84255;BME280;74400;44.692;18.998;2024-03-29T04:01:15;99604.63;;;11.97;60.59
84255;BME280;74400;44.692;18.998;2024-03-29T04:03:41;99606.91;;;11.78;61.15
84255;BME280;74400;44.692;18.998;2024-03-29T04:06:07;99618.78;;;11.80;61.07
84255;BME280;74400;44.692;18.998;2024-03-29T04:08:32;99621.31;;;11.69;61.83
84255;BME280;74400;44.692;18.998;2024-03-29T04:11:04;99617.22;;;11.66;61.38
84255;BME280;74400;44.692;18.998;2024-03-29T04:13:30;99609.47;;;11.55;61.63
84255;BME280;74400;44.692;18.998;2024-03-29T04:16:03;99611.06;;;11.45;62.46
84255;BME280;74400;44.692;18.998;2024-03-29T04:18:29;99618.31;;;11.29;63.25
84255;BME280;74400;44.692;18.998;2024-03-29T04:21:01;99609.41;;;11.33;63.09
84255;BME280;74400;44.692;18.998;2024-03-29T04:23:28;99621.25;;;11.35;62.91
84255;BME280;74400;44.692;18.998;2024-03-29T04:25:54;99626.28;;;11.37;63.04
84255;BME280;74400;44.692;18.998;2024-03-29T04:28:20;99619.00;;;11.31;63.38
84255;BME280;74400;44.692;18.998;2024-03-29T04:30:56;99612.53;;;11.25;63.44
84255;BME280;74400;44.692;18.998;2024-03-29T04:33:22;99624.59;;;11.25;63.43
84255;BME280;74400;44.692;18.998;2024-03-29T04:36:01;99631.75;;;11.21;63.68
84255;BME280;74400;44.692;18.998;2024-03-29T04:38:28;99631.78;;;11.08;64.04
84255;BME280;74400;44.692;18.998;2024-03-29T04:40:55;99624.16;;;11.07;64.07
84255;BME280;74400;44.692;18.998;2024-03-29T04:43:22;99623.34;;;11.06;64.03
84255;BME280;74400;44.692;18.998;2024-03-29T04:45:48;99628.28;;;11.09;63.64
84255;BME280;74400;44.692;18.998;2024-03-29T04:48:14;99623.59;;;11.03;63.93
84255;BME280;74400;44.692;18.998;2024-03-29T04:50:40;99622.38;;;10.96;64.36
84255;BME280;74400;44.692;18.998;2024-03-29T04:53:07;99628.34;;;10.97;64.58
84255;BME280;74400;44.692;18.998;2024-03-29T04:55:33;99627.56;;;11.07;64.13
84255;BME280;74400;44.692;18.998;2024-03-29T04:58:00;99621.22;;;11.00;64.61
84255;BME280;74400;44.692;18.998;2024-03-29T05:00:25;99625.28;;;10.92;63.83
84255;BME280;74400;44.692;18.998;2024-03-29T05:02:51;99620.34;;;10.89;64.00
84255;BME280;74400;44.692;18.998;2024-03-29T05:05:17;99620.41;;;10.76;65.08
84255;BME280;74400;44.692;18.998;2024-03-29T05:07:42;99628.75;;;10.67;65.60
84255;BME280;74400;44.692;18.998;2024-03-29T05:10:08;99626.06;;;10.68;65.79
84255;BME280;74400;44.692;18.998;2024-03-29T05:12:35;99640.25;;;10.74;65.76
84255;BME280;74400;44.692;18.998;2024-03-29T05:15:01;99642.63;;;10.77;64.91
84255;BME280;74400;44.692;18.998;2024-03-29T05:17:27;99645.25;;;10.88;65.44
84255;BME280;74400;44.692;18.998;2024-03-29T05:19:54;99650.78;;;10.71;65.52
84255;BME280;74400;44.692;18.998;2024-03-29T05:22:20;99650.53;;;10.74;65.62
84255;BME280;74400;44.692;18.998;2024-03-29T05:27:12;99647.25;;;11.08;64.36
84255;BME280;74400;44.692;18.998;2024-03-29T05:29:39;99646.00;;;11.25;63.67
84255;BME280;74400;44.692;18.998;2024-03-29T05:32:06;99645.72;;;11.41;63.30
84255;BME280;74400;44.692;18.998;2024-03-29T05:34:37;99638.25;;;11.49;63.55
84255;BME280;74400;44.692;18.998;2024-03-29T05:37:13;99643.91;;;11.54;62.79
84255;BME280;74400;44.692;18.998;2024-03-29T05:39:41;99642.38;;;11.63;63.02
84255;BME280;74400;44.692;18.998;2024-03-29T05:42:13;99648.25;;;11.65;62.71
84255;BME280;74400;44.692;18.998;2024-03-29T05:50:00;99629.38;;;12.00;61.80
84255;BME280;74400;44.692;18.998;2024-03-29T05:55:51;99645.13;;;12.73;59.76
84255;BME280;74400;44.692;18.998;2024-03-29T06:04:22;99642.38;;;16.08;50.63
84255;BME280;74400;44.692;18.998;2024-03-29T06:06:55;99644.25;;;18.30;44.63
84255;BME280;74400;44.692;18.998;2024-03-29T06:09:20;99644.97;;;19.31;41.85
84255;BME280;74400;44.692;18.998;2024-03-29T06:11:49;99640.81;;;20.02;40.19
84255;BME280;74400;44.692;18.998;2024-03-29T06:14:31;99643.84;;;20.30;39.32
84255;BME280;74400;44.692;18.998;2024-03-29T06:17:26;99640.41;;;21.00;38.05
84255;BME280;74400;44.692;18.998;2024-03-29T06:22:38;99631.91;;;22.11;35.71
84255;BME280;74400;44.692;18.998;2024-03-29T06:31:25;99637.53;;;22.59;35.25
84255;BME280;74400;44.692;18.998;2024-03-29T06:33:51;99638.25;;;22.53;35.54
84255;BME280;74400;44.692;18.998;2024-03-29T06:36:17;99642.16;;;22.57;35.15
84255;BME280;74400;44.692;18.998;2024-03-29T06:38:43;99645.88;;;22.33;35.55
84255;BME280;74400;44.692;18.998;2024-03-29T06:43:49;99650.28;;;21.35;37.32
84255;BME280;74400;44.692;18.998;2024-03-29T06:46:14;99664.22;;;22.03;36.49
84255;BME280;74400;44.692;18.998;2024-03-29T06:48:40;99663.06;;;22.21;35.64
84255;BME280;74400;44.692;18.998;2024-03-29T06:51:15;99659.22;;;21.94;36.31
84255;BME280;74400;44.692;18.998;2024-03-29T06:53:52;99657.63;;;21.93;36.56
84255;BME280;74400;44.692;18.998;2024-03-29T06:56:18;99667.84;;;22.32;35.91
84255;BME280;74400;44.692;18.998;2024-03-29T07:01:44;99659.97;;;22.83;34.90
84255;BME280;74400;44.692;18.998;2024-03-29T07:07:09;99657.66;;;23.80;33.52
84255;BME280;74400;44.692;18.998;2024-03-29T07:15:24;99658.44;;;23.81;33.42
84255;BME280;74400;44.692;18.998;2024-03-29T07:18:22;99671.28;;;24.31;32.84
84255;BME280;74400;44.692;18.998;2024-03-29T07:28:07;99673.97;;;24.03;33.68
84255;BME280;74400;44.692;18.998;2024-03-29T07:30:41;99678.44;;;24.44;32.88
84255;BME280;74400;44.692;18.998;2024-03-29T07:33:09;99685.22;;;24.32;32.75
84255;BME280;74400;44.692;18.998;2024-03-29T07:35:49;99680.63;;;24.41;33.30
84255;BME280;74400;44.692;18.998;2024-03-29T07:38:21;99674.72;;;24.73;33.05
84255;BME280;74400;44.692;18.998;2024-03-29T07:41:00;99673.94;;;24.86;32.17
84255;BME280;74400;44.692;18.998;2024-03-29T07:43:26;99683.03;;;24.83;32.62
84255;BME280;74400;44.692;18.998;2024-03-29T07:45:51;99693.66;;;25.50;31.54
84255;BME280;74400;44.692;18.998;2024-03-29T07:48:18;99678.50;;;25.78;31.25
84255;BME280;74400;44.692;18.998;2024-03-29T07:50:57;99684.16;;;25.82;30.62
84255;BME280;74400;44.692;18.998;2024-03-29T07:53:32;99690.59;;;26.12;30.52
84255;BME280;74400;44.692;18.998;2024-03-29T07:56:01;99692.06;;;26.08;31.25
84255;BME280;74400;44.692;18.998;2024-03-29T07:58:26;99690.25;;;25.96;30.67
84255;BME280;74400;44.692;18.998;2024-03-29T08:00:53;99690.72;;;26.51;30.24
84255;BME280;74400;44.692;18.998;2024-03-29T08:03:19;99698.78;;;27.07;29.62
84255;BME280;74400;44.692;18.998;2024-03-29T08:08:12;99692.69;;;25.57;31.62
84255;BME280;74400;44.692;18.998;2024-03-29T08:10:41;99696.75;;;25.80;32.37
84255;BME280;74400;44.692;18.998;2024-03-29T08:13:07;99696.75;;;25.80;32.31
84255;BME280;74400;44.692;18.998;2024-03-29T08:15:35;99690.44;;;25.34;32.55
84255;BME280;74400;44.692;18.998;2024-03-29T08:18:18;99693.66;;;25.30;33.48
84255;BME280;74400;44.692;18.998;2024-03-29T08:21:00;99693.00;;;25.01;33.50
84255;BME280;74400;44.692;18.998;2024-03-29T08:23:26;99689.84;;;25.26;34.00
84255;BME280;74400;44.692;18.998;2024-03-29T08:26:01;99692.25;;;25.87;32.29
84255;BME280;74400;44.692;18.998;2024-03-29T08:28:44;99689.56;;;26.20;32.45
84255;BME280;74400;44.692;18.998;2024-03-29T08:31:12;99698.69;;;26.17;31.93
84255;BME280;74400;44.692;18.998;2024-03-29T08:33:39;99695.78;;;26.45;31.82
84255;BME280;74400;44.692;18.998;2024-03-29T08:36:05;99692.16;;;26.85;31.44
84255;BME280;74400;44.692;18.998;2024-03-29T08:38:57;99686.03;;;27.29;30.04
84255;BME280;74400;44.692;18.998;2024-03-29T08:41:25;99691.28;;;26.97;31.56
84255;BME280;74400;44.692;18.998;2024-03-29T08:49:33;99686.63;;;27.56;30.54
84255;BME280;74400;44.692;18.998;2024-03-29T08:52:02;99678.41;;;27.14;30.76
84255;BME280;74400;44.692;18.998;2024-03-29T08:54:31;99681.28;;;27.63;29.82
84255;BME280;74400;44.692;18.998;2024-03-29T08:56:57;99689.69;;;28.21;29.11
84255;BME280;74400;44.692;18.998;2024-03-29T08:59:26;99696.41;;;27.99;30.71
84255;BME280;74400;44.692;18.998;2024-03-29T09:01:52;99695.38;;;27.82;29.88
84255;BME280;74400;44.692;18.998;2024-03-29T09:04:20;99691.59;;;28.51;29.27
84255;BME280;74400;44.692;18.998;2024-03-29T09:06:47;99689.66;;;27.85;29.55
84255;BME280;74400;44.692;18.998;2024-03-29T09:56:25;99656.47;;;26.31;32.71
84255;BME280;74400;44.692;18.998;2024-03-29T09:59:03;99651.16;;;27.20;30.94
84255;BME280;74400;44.692;18.998;2024-03-29T10:01:39;99650.88;;;28.52;29.73
84255;BME280;74400;44.692;18.998;2024-03-29T10:04:08;99647.44;;;29.47;26.82
84255;BME280;74400;44.692;18.998;2024-03-29T10:06:49;99649.34;;;28.44;28.10
84255;BME280;74400;44.692;18.998;2024-03-29T10:09:22;99650.59;;;27.18;30.74
84255;BME280;74400;44.692;18.998;2024-03-29T10:12:06;99645.34;;;26.29;31.79
84255;BME280;74400;44.692;18.998;2024-03-29T10:15:02;99642.44;;;25.65;31.96
84255;BME280;74400;44.692;18.998;2024-03-29T10:17:37;99642.63;;;25.11;33.11
84255;BME280;74400;44.692;18.998;2024-03-29T10:20:04;99646.50;;;25.35;33.55
84255;BME280;74400;44.692;18.998;2024-03-29T10:22:42;99646.06;;;25.84;32.27
84255;BME280;74400;44.692;18.998;2024-03-29T10:28:37;99645.47;;;25.62;32.65
84255;BME280;74400;44.692;18.998;2024-03-29T10:31:12;99635.13;;;25.67;31.98
84255;BME280;74400;44.692;18.998;2024-03-29T10:33:42;99642.22;;;25.60;32.32
84255;BME280;74400;44.692;18.998;2024-03-29T10:36:25;99636.38;;;25.58;32.61
84255;BME280;74400;44.692;18.998;2024-03-29T10:39:02;99628.84;;;25.82;32.28
84255;BME280;74400;44.692;18.998;2024-03-29T10:41:30;99631.84;;;25.99;31.22
84255;BME280;74400;44.692;18.998;2024-03-29T10:50:21;99629.44;;;25.90;31.37
84255;BME280;74400;44.692;18.998;2024-03-29T10:52:53;99614.28;;;25.46;32.15
84255;BME280;74400;44.692;18.998;2024-03-29T10:55:38;99622.19;;;25.39;33.48
84255;BME280;74400;44.692;18.998;2024-03-29T10:58:05;99618.94;;;25.31;32.09
84255;BME280;74400;44.692;18.998;2024-03-29T11:00:38;99622.97;;;25.80;30.76
84255;BME280;74400;44.692;18.998;2024-03-29T11:05:51;99619.03;;;26.67;28.09
84255;BME280;74400;44.692;18.998;2024-03-29T11:08:36;99616.09;;;26.82;26.81
84255;BME280;74400;44.692;18.998;2024-03-29T11:11:28;99612.69;;;26.75;25.70
84255;BME280;74400;44.692;18.998;2024-03-29T11:14:08;99603.31;;;26.34;25.94
84255;BME280;74400;44.692;18.998;2024-03-29T11:16:39;99596.84;;;26.36;26.56
84255;BME280;74400;44.692;18.998;2024-03-29T11:22:24;99604.28;;;26.84;26.81
84255;BME280;74400;44.692;18.998;2024-03-29T11:25:18;99592.44;;;26.68;27.44
84255;BME280;74400;44.692;18.998;2024-03-29T11:27:44;99589.88;;;26.87;27.87
84255;BME280;74400;44.692;18.998;2024-03-29T11:32:39;99575.31;;;27.52;27.76
84255;BME280;74400;44.692;18.998;2024-03-29T11:37:39;99559.72;;;27.69;26.41
84255;BME280;74400;44.692;18.998;2024-03-29T11:40:06;99573.44;;;27.35;26.30
84255;BME280;74400;44.692;18.998;2024-03-29T11:42:46;99567.09;;;27.17;26.43
84255;BME280;74400;44.692;18.998;2024-03-29T11:45:13;99577.75;;;27.04;26.15
84255;BME280;74400;44.692;18.998;2024-03-29T11:47:43;99565.66;;;27.21;25.59
84255;BME280;74400;44.692;18.998;2024-03-29T11:50:09;99564.56;;;27.29;25.88
84255;BME280;74400;44.692;18.998;2024-03-29T11:52:38;99560.13;;;26.98;26.37
84255;BME280;74400;44.692;18.998;2024-03-29T11:55:04;99575.31;;;26.78;26.85
84255;BME280;74400;44.692;18.998;2024-03-29T11:57:30;99575.88;;;26.86;26.11
84255;BME280;74400;44.692;18.998;2024-03-29T12:00:03;99570.03;;;26.78;26.92
84255;BME280;74400;44.692;18.998;2024-03-29T12:02:48;99565.38;;;26.80;26.82
84255;BME280;74400;44.692;18.998;2024-03-29T12:08:38;99556.47;;;26.74;26.02
84255;BME280;74400;44.692;18.998;2024-03-29T12:11:08;99563.13;;;26.77;25.78
84255;BME280;74400;44.692;18.998;2024-03-29T12:13:54;99548.72;;;27.04;25.19
84255;BME280;74400;44.692;18.998;2024-03-29T12:20:06;99533.34;;;27.44;25.36
84255;BME280;74400;44.692;18.998;2024-03-29T12:22:37;99529.31;;;27.97;25.25
84255;BME280;74400;44.692;18.998;2024-03-29T12:25:05;99526.91;;;27.95;24.53
84255;BME280;74400;44.692;18.998;2024-03-29T12:27:31;99527.91;;;27.94;24.12
84255;BME280;74400;44.692;18.998;2024-03-29T12:29:58;99534.16;;;27.82;25.46
84255;BME280;74400;44.692;18.998;2024-03-29T12:32:24;99533.50;;;27.86;25.19
84255;BME280;74400;44.692;18.998;2024-03-29T12:34:51;99529.69;;;27.64;25.50
84255;BME280;74400;44.692;18.998;2024-03-29T12:37:17;99526.34;;;27.50;25.72
84255;BME280;74400;44.692;18.998;2024-03-29T12:39:42;99526.84;;;27.22;25.59
84255;BME280;74400;44.692;18.998;2024-03-29T12:42:08;99523.97;;;27.05;25.70
84255;BME280;74400;44.692;18.998;2024-03-29T12:44:35;99535.88;;;26.58;25.92
84255;BME280;74400;44.692;18.998;2024-03-29T12:47:01;99530.41;;;26.14;25.90
84255;BME280;74400;44.692;18.998;2024-03-29T12:49:27;99536.59;;;25.95;27.05
84255;BME280;74400;44.692;18.998;2024-03-29T12:51:55;99533.53;;;25.98;27.01
84255;BME280;74400;44.692;18.998;2024-03-29T12:54:41;99531.66;;;26.12;26.44
84255;BME280;74400;44.692;18.998;2024-03-29T13:05:47;99522.97;;;26.05;26.24
84255;BME280;74400;44.692;18.998;2024-03-29T13:08:33;99525.97;;;26.15;26.07
84255;BME280;74400;44.692;18.998;2024-03-29T13:11:43;99525.09;;;26.28;25.83
84255;BME280;74400;44.692;18.998;2024-03-29T13:14:09;99519.34;;;26.44;26.24
84255;BME280;74400;44.692;18.998;2024-03-29T13:16:38;99511.66;;;26.36;25.45
84255;BME280;74400;44.692;18.998;2024-03-29T13:19:05;99507.44;;;26.28;26.33
84255;BME280;74400;44.692;18.998;2024-03-29T13:21:30;99509.31;;;26.14;25.92
84255;BME280;74400;44.692;18.998;2024-03-29T13:24:04;99512.44;;;26.05;26.50
84255;BME280;74400;44.692;18.998;2024-03-29T13:30:17;99494.97;;;26.10;26.08
84255;BME280;74400;44.692;18.998;2024-03-29T13:33:01;99502.06;;;26.10;27.43
84255;BME280;74400;44.692;18.998;2024-03-29T13:35:27;99496.22;;;26.01;27.18
84255;BME280;74400;44.692;18.998;2024-03-29T13:40:31;99497.31;;;25.87;27.63
84255;BME280;74400;44.692;18.998;2024-03-29T13:42:58;99500.19;;;25.72;27.49
84255;BME280;74400;44.692;18.998;2024-03-29T13:45:24;99498.53;;;25.91;27.25
84255;BME280;74400;44.692;18.998;2024-03-29T13:48:01;99493.88;;;25.86;28.00
84255;BME280;74400;44.692;18.998;2024-03-29T13:50:26;99493.66;;;25.88;27.22
84255;BME280;74400;44.692;18.998;2024-03-29T13:52:52;99497.25;;;26.00;27.04
84255;BME280;74400;44.692;18.998;2024-03-29T13:55:20;99485.94;;;25.93;27.12
84255;BME280;74400;44.692;18.998;2024-03-29T13:57:45;99485.16;;;25.86;27.34
84255;BME280;74400;44.692;18.998;2024-03-29T14:00:11;99487.50;;;26.01;26.72
84255;BME280;74400;44.692;18.998;2024-03-29T14:02:39;99481.97;;;26.15;26.59
84255;BME280;74400;44.692;18.998;2024-03-29T14:05:05;99486.22;;;26.16;26.24
84255;BME280;74400;44.692;18.998;2024-03-29T14:07:33;99479.81;;;25.99;27.18
84255;BME280;74400;44.692;18.998;2024-03-29T14:09:58;99471.44;;;25.71;27.84
84255;BME280;74400;44.692;18.998;2024-03-29T14:12:25;99479.56;;;25.56;27.52
84255;BME280;74400;44.692;18.998;2024-03-29T14:14:51;99473.03;;;25.78;27.67
84255;BME280;74400;44.692;18.998;2024-03-29T14:17:20;99478.88;;;25.87;27.42
84255;BME280;74400;44.692;18.998;2024-03-29T14:19:47;99475.94;;;26.02;26.22
84255;BME280;74400;44.692;18.998;2024-03-29T14:25:03;99464.59;;;26.01;26.71
84255;BME280;74400;44.692;18.998;2024-03-29T14:27:37;99468.06;;;25.95;27.96
84255;BME280;74400;44.692;18.998;2024-03-29T14:30:12;99469.44;;;25.59;29.16
84255;BME280;74400;44.692;18.998;2024-03-29T14:32:37;99458.75;;;25.41;28.33
84255;BME280;74400;44.692;18.998;2024-03-29T14:35:03;99459.84;;;25.14;29.56
84255;BME280;74400;44.692;18.998;2024-03-29T14:37:29;99464.31;;;25.00;29.83
84255;BME280;74400;44.692;18.998;2024-03-29T14:39:59;99458.63;;;24.96;27.68
84255;BME280;74400;44.692;18.998;2024-03-29T14:42:46;99460.66;;;24.94;28.52
84255;BME280;74400;44.692;18.998;2024-03-29T14:45:15;99467.13;;;24.72;29.77
84255;BME280;74400;44.692;18.998;2024-03-29T14:47:53;99462.28;;;24.75;28.83
84255;BME280;74400;44.692;18.998;2024-03-29T14:50:24;99468.75;;;24.73;29.63
84255;BME280;74400;44.692;18.998;2024-03-29T14:52:51;99463.91;;;24.70;29.23
84255;BME280;74400;44.692;18.998;2024-03-29T14:55:56;99466.13;;;24.66;29.29
84255;BME280;74400;44.692;18.998;2024-03-29T14:58:43;99473.22;;;24.66;29.83
84255;BME280;74400;44.692;18.998;2024-03-29T15:01:12;99472.38;;;24.45;33.76
84255;BME280;74400;44.692;18.998;2024-03-29T15:06:44;99461.34;;;24.02;36.55
84255;BME280;74400;44.692;18.998;2024-03-29T15:09:12;99472.25;;;23.92;36.80
84255;BME280;74400;44.692;18.998;2024-03-29T15:11:38;99472.41;;;23.77;36.46
84255;BME280;74400;44.692;18.998;2024-03-29T15:14:03;99474.00;;;23.72;36.35
84255;BME280;74400;44.692;18.998;2024-03-29T15:16:34;99468.13;;;23.70;36.23
84255;BME280;74400;44.692;18.998;2024-03-29T15:24:53;99472.78;;;23.33;37.66
84255;BME280;74400;44.692;18.998;2024-03-29T15:27:42;99473.75;;;23.26;37.28
84255;BME280;74400;44.692;18.998;2024-03-29T15:30:39;99461.75;;;23.16;38.10
84255;BME280;74400;44.692;18.998;2024-03-29T15:33:08;99462.72;;;23.09;38.25
84255;BME280;74400;44.692;18.998;2024-03-29T15:35:39;99468.13;;;23.01;38.90
84255;BME280;74400;44.692;18.998;2024-03-29T15:38:40;99460.22;;;22.94;39.54
84255;BME280;74400;44.692;18.998;2024-03-29T15:44:44;99448.56;;;22.75;38.85
84255;BME280;74400;44.692;18.998;2024-03-29T15:47:10;99457.78;;;22.71;39.20
84255;BME280;74400;44.692;18.998;2024-03-29T15:49:38;99455.38;;;22.69;39.17
84255;BME280;74400;44.692;18.998;2024-03-29T15:52:04;99455.72;;;22.66;39.18
84255;BME280;74400;44.692;18.998;2024-03-29T15:54:31;99466.81;;;22.62;39.31
84255;BME280;74400;44.692;18.998;2024-03-29T15:56:56;99468.66;;;22.68;39.75
84255;BME280;74400;44.692;18.998;2024-03-29T15:59:23;99472.66;;;22.64;39.74